createdAt,value
2023-02-28T00:01:23.246Z,22.24
2023-02-28T00:03:50.214Z,22.28
2023-02-28T00:51:44.267Z,22.10
2023-02-28T00:54:11.085Z,22.05
2023-02-28T00:56:37.776Z,22.03
2023-02-28T00:59:04.460Z,22.01
2023-02-28T01:01:31.627Z,21.97
2023-02-28T01:03:58.645Z,21.93
2023-02-28T01:06:25.386Z,21.87
2023-02-28T01:08:52.059Z,21.86
2023-02-28T01:11:19.619Z,21.80
2023-02-28T01:13:47.392Z,21.80
2023-02-28T01:16:14.599Z,21.74
2023-02-28T01:18:41.632Z,21.73
2023-02-28T01:21:10.516Z,21.66
2023-02-28T01:23:37.382Z,21.63
2023-02-28T01:26:06.704Z,21.60
2023-02-28T01:28:33.380Z,21.55
2023-02-28T01:31:00.126Z,21.49
2023-02-28T01:33:27.216Z,21.44
2023-02-28T01:35:57.006Z,21.41
2023-02-28T01:38:23.837Z,21.37
2023-02-28T01:40:50.885Z,21.38
2023-02-28T01:43:21.460Z,21.36
2023-02-28T01:45:48.210Z,21.27
2023-02-28T01:48:14.974Z,21.25
2023-02-28T01:50:43.380Z,21.25
2023-02-28T01:53:13.922Z,21.20
2023-02-28T01:55:41.521Z,21.16
2023-02-28T01:58:10.195Z,21.11
2023-02-28T02:00:37.068Z,21.11
2023-02-28T02:03:07.632Z,21.05
2023-02-28T02:05:35.424Z,21.08
2023-02-28T02:08:04.821Z,21.02
2023-02-28T02:10:32.918Z,20.99
2023-02-28T02:13:02.793Z,20.95
2023-02-28T02:15:33.685Z,20.92
2023-02-28T02:18:05.226Z,20.91
2023-02-28T02:20:36.265Z,20.85
2023-02-28T02:23:13.162Z,20.87
2023-02-28T02:25:43.295Z,20.88
2023-02-28T02:28:10.728Z,20.85
2023-02-28T02:30:40.715Z,20.82
2023-02-28T02:33:08.286Z,20.80
2023-02-28T02:35:38.501Z,20.76
2023-02-28T02:38:06.011Z,20.72
2023-02-28T02:40:36.053Z,20.67
2023-02-28T02:43:06.408Z,20.63
2023-02-28T02:45:37.259Z,20.61
2023-02-28T02:48:06.984Z,20.57
2023-02-28T02:50:38.232Z,20.54
2023-02-28T02:53:06.468Z,20.50
2023-02-28T02:55:37.976Z,20.46
2023-02-28T02:58:06.820Z,20.44
2023-02-28T03:00:37.002Z,20.40
2023-02-28T03:03:04.045Z,20.37
2023-02-28T03:05:35.795Z,20.36
2023-02-28T03:08:05.230Z,20.32
2023-02-28T03:10:34.288Z,20.32
2023-02-28T03:13:07.253Z,20.30
2023-02-28T03:15:40.343Z,20.29
2023-02-28T03:18:10.361Z,20.24
2023-02-28T03:20:40.179Z,20.20
2023-02-28T03:23:10.014Z,20.19
2023-02-28T03:25:39.879Z,20.17
2023-02-28T03:28:06.989Z,20.15
2023-02-28T03:30:38.106Z,20.11
2023-02-28T03:33:10.096Z,20.10
2023-02-28T03:35:41.133Z,20.09
2023-02-28T03:38:15.329Z,20.07
2023-02-28T03:40:44.274Z,20.05
2023-02-28T03:43:13.433Z,20.02
2023-02-28T03:45:42.417Z,19.99
2023-02-28T03:48:12.423Z,19.97
2023-02-28T03:50:42.291Z,19.95
2023-02-28T03:53:12.554Z,19.93
2023-02-28T03:55:42.590Z,19.90
2023-02-28T03:58:17.456Z,19.90
2023-02-28T04:00:47.458Z,19.87
2023-02-28T04:03:14.663Z,19.85
2023-02-28T04:05:48.998Z,19.83
2023-02-28T04:08:15.782Z,19.81
2023-02-28T04:10:46.530Z,19.79
2023-02-28T04:13:13.304Z,19.77
2023-02-28T04:15:40.038Z,19.76
2023-02-28T04:18:07.064Z,19.74
2023-02-28T04:20:33.823Z,19.74
2023-02-28T04:23:00.672Z,19.71
2023-02-28T04:25:27.478Z,19.70
2023-02-28T04:27:54.266Z,19.66
2023-02-28T04:30:21.466Z,19.66
2023-02-28T04:32:50.599Z,19.64
2023-02-28T04:35:17.786Z,19.62
2023-02-28T04:37:44.646Z,19.60
2023-02-28T04:40:11.926Z,19.58
2023-02-28T04:42:38.665Z,19.56
2023-02-28T04:45:05.980Z,19.54
2023-02-28T04:47:32.829Z,19.51
2023-02-28T04:49:59.698Z,19.51
2023-02-28T04:52:28.282Z,19.47
2023-02-28T04:54:55.054Z,19.46
2023-02-28T04:57:21.787Z,19.44
2023-02-28T04:59:48.491Z,19.43
2023-02-28T05:02:15.359Z,19.40
2023-02-28T05:04:42.098Z,19.39
2023-02-28T05:07:08.865Z,19.38
2023-02-28T05:09:35.862Z,19.36
2023-02-28T05:12:04.957Z,19.33
2023-02-28T05:14:34.027Z,19.32
2023-02-28T05:17:00.805Z,19.28
2023-02-28T05:19:30.709Z,19.28
2023-02-28T05:21:57.474Z,19.26
2023-02-28T05:24:24.813Z,19.25
2023-02-28T05:26:54.832Z,19.25
2023-02-28T05:29:21.785Z,19.29
2023-02-28T05:31:50.950Z,19.36
2023-02-28T05:34:17.956Z,19.43
2023-02-28T05:36:45.148Z,19.48
2023-02-28T05:39:14.263Z,19.54
2023-02-28T05:41:42.535Z,19.60
2023-02-28T05:44:09.401Z,19.63
2023-02-28T05:46:36.334Z,19.68
2023-02-28T05:49:03.552Z,19.73
2023-02-28T05:51:30.707Z,19.78
2023-02-28T05:54:02.453Z,19.82
2023-02-28T05:56:29.494Z,19.87
2023-02-28T05:58:56.427Z,19.93
2023-02-28T06:01:23.915Z,19.98
2023-02-28T06:03:50.857Z,20.04
2023-02-28T06:06:19.954Z,20.10
2023-02-28T06:08:46.991Z,20.14
2023-02-28T06:11:13.950Z,20.19
2023-02-28T06:13:40.835Z,20.24
2023-02-28T06:16:08.260Z,20.30
2023-02-28T06:18:35.064Z,20.35
2023-02-28T06:21:02.095Z,20.40
2023-02-28T06:23:28.829Z,20.46
2023-02-28T06:25:59.335Z,20.49
2023-02-28T06:28:26.823Z,20.53
2023-02-28T06:30:53.819Z,20.58
2023-02-28T06:33:20.729Z,20.63
2023-02-28T06:35:48.115Z,20.67
2023-02-28T06:38:14.910Z,20.71
2023-02-28T06:40:41.661Z,20.75
2023-02-28T06:43:08.511Z,20.79
2023-02-28T06:45:35.560Z,20.82
2023-02-28T06:48:02.487Z,20.86
2023-02-28T06:50:30.846Z,20.90
2023-02-28T06:52:57.658Z,20.94
2023-02-28T06:55:24.624Z,20.94
2023-02-28T06:57:51.899Z,20.98
2023-02-28T07:00:19.708Z,21.00
2023-02-28T07:02:46.996Z,21.02
2023-02-28T07:05:14.038Z,21.03
2023-02-28T07:07:44.787Z,21.04
2023-02-28T07:10:12.664Z,21.07
2023-02-28T07:12:39.549Z,21.09
2023-02-28T07:15:07.072Z,21.07
2023-02-28T07:17:34.170Z,21.08
2023-02-28T07:20:01.012Z,21.01
2023-02-28T07:22:27.877Z,20.84
2023-02-28T07:24:54.959Z,20.88
2023-02-28T07:27:25.069Z,20.90
2023-02-28T07:29:51.861Z,20.94
2023-02-28T07:32:19.909Z,20.95
2023-02-28T07:34:46.946Z,20.99
2023-02-28T07:37:13.890Z,21.03
2023-02-28T07:39:42.993Z,21.05
2023-02-28T07:42:12.520Z,21.08
2023-02-28T07:44:41.765Z,21.10
2023-02-28T07:47:10.252Z,21.12
2023-02-28T07:49:38.120Z,21.16
2023-02-28T07:52:06.309Z,21.17
2023-02-28T07:54:33.564Z,21.14
2023-02-28T07:57:01.047Z,21.17
2023-02-28T07:59:30.061Z,21.13
2023-02-28T08:02:00.012Z,21.15
2023-02-28T08:04:27.562Z,21.10
2023-02-28T08:06:55.676Z,21.09
2023-02-28T08:09:23.923Z,21.09
2023-02-28T08:11:51.195Z,21.06
2023-02-28T08:14:20.484Z,21.04
2023-02-28T08:16:47.390Z,21.02
2023-02-28T08:19:14.719Z,21.03
2023-02-28T08:21:41.652Z,20.99
2023-02-28T08:24:09.210Z,20.96
2023-02-28T08:26:36.193Z,20.97
2023-02-28T08:29:03.287Z,20.99
2023-02-28T08:31:30.734Z,20.94
2023-02-28T08:34:00.227Z,20.93
2023-02-28T08:36:30.038Z,20.91
2023-02-28T08:38:58.326Z,20.90
2023-02-28T08:41:25.436Z,20.90
2023-02-28T08:43:52.808Z,20.89
2023-02-28T08:46:20.018Z,20.92
2023-02-28T08:48:47.117Z,20.88
2023-02-28T08:51:18.308Z,20.89
2023-02-28T08:53:45.913Z,20.94
2023-02-28T08:56:14.118Z,20.96
2023-02-28T08:58:41.747Z,20.99
2023-02-28T09:01:10.508Z,21.03
2023-02-28T09:03:37.564Z,21.03
2023-02-28T09:06:06.187Z,21.05
2023-02-28T09:08:33.759Z,21.04
2023-02-28T09:11:09.561Z,21.06
2023-02-28T09:13:37.237Z,21.07
2023-02-28T09:16:05.934Z,21.05
2023-02-28T09:18:36.556Z,21.06
2023-02-28T09:21:04.794Z,21.07
2023-02-28T09:23:32.183Z,21.04
2023-02-28T09:25:59.336Z,21.04
2023-02-28T09:28:26.440Z,21.04
2023-02-28T09:30:57.937Z,21.02
2023-02-28T09:33:25.677Z,20.96
2023-02-28T09:35:59.082Z,20.96
2023-02-28T09:38:26.408Z,20.92
2023-02-28T09:41:00.148Z,20.91
2023-02-28T09:43:29.742Z,20.94
2023-02-28T09:46:08.358Z,20.98
2023-02-28T09:48:41.049Z,21.00
2023-02-28T09:51:11.762Z,21.04
2023-02-28T09:53:40.970Z,21.05
2023-02-28T09:56:11.591Z,21.04
2023-02-28T09:58:39.458Z,21.05
2023-02-28T10:01:09.483Z,21.03
2023-02-28T10:03:40.853Z,21.04
2023-02-28T10:06:13.820Z,21.06
2023-02-28T10:08:46.318Z,21.00
2023-02-28T10:11:16.838Z,20.94
2023-02-28T10:13:53.687Z,20.96
2023-02-28T10:16:24.039Z,20.88
2023-02-28T10:18:52.445Z,20.87
2023-02-28T10:21:22.767Z,20.84
2023-02-28T10:23:49.977Z,20.80
2023-02-28T10:26:18.952Z,20.79
2023-02-28T10:28:46.712Z,20.76
2023-02-28T10:31:17.911Z,20.72
2023-02-28T10:33:45.381Z,20.71
2023-02-28T10:36:15.522Z,20.71
2023-02-28T10:38:42.651Z,20.67
2023-02-28T10:41:11.098Z,20.63
2023-02-28T10:43:44.068Z,20.65
2023-02-28T10:46:19.601Z,20.68
2023-02-28T10:48:57.190Z,20.65
2023-02-28T10:51:24.478Z,20.71
2023-02-28T10:54:00.975Z,20.77
2023-02-28T10:56:29.371Z,20.81
2023-02-28T10:58:57.098Z,20.85
2023-02-28T11:01:26.023Z,20.88
2023-02-28T11:03:55.353Z,20.90
2023-02-28T11:06:24.489Z,20.92
2023-02-28T11:08:53.354Z,20.97
2023-02-28T11:11:21.890Z,20.99
2023-02-28T11:13:51.490Z,21.00
2023-02-28T11:16:18.495Z,21.02
2023-02-28T11:18:50.149Z,21.03
2023-02-28T11:21:19.809Z,21.04
2023-02-28T11:23:47.106Z,21.05
2023-02-28T11:26:14.434Z,21.05
2023-02-28T11:28:42.953Z,21.07
2023-02-28T11:31:13.319Z,21.07
2023-02-28T11:33:43.603Z,21.04
2023-02-28T11:36:14.162Z,21.05
2023-02-28T11:38:41.815Z,21.01
2023-02-28T11:41:16.324Z,20.97
2023-02-28T11:43:46.636Z,20.94
2023-02-28T11:46:17.054Z,20.92
2023-02-28T11:48:48.665Z,20.88
2023-02-28T11:51:18.785Z,20.85
2023-02-28T11:53:47.253Z,20.85
2023-02-28T11:56:20.865Z,20.84
2023-02-28T11:58:55.517Z,20.82
2023-02-28T12:01:26.222Z,20.79
2023-02-28T12:03:56.725Z,20.76
2023-02-28T12:06:27.756Z,20.77
2023-02-28T12:08:55.606Z,20.71
2023-02-28T12:11:26.003Z,20.70
2023-02-28T12:13:59.854Z,20.70
2023-02-28T12:16:29.291Z,20.67
2023-02-28T12:18:59.738Z,20.65
2023-02-28T12:21:32.111Z,20.62
2023-02-28T12:23:59.799Z,20.59
2023-02-28T12:26:30.061Z,20.55
2023-02-28T12:29:05.771Z,20.54
2023-02-28T12:31:38.053Z,20.52
2023-02-28T12:34:09.597Z,20.48
2023-02-28T12:36:38.551Z,20.46
2023-02-28T12:39:09.986Z,20.42
2023-02-28T12:41:42.863Z,20.37
2023-02-28T12:44:13.601Z,20.34
2023-02-28T12:46:46.822Z,20.33
2023-02-28T12:49:17.555Z,20.32
2023-02-28T12:51:45.784Z,20.29
2023-02-28T12:54:14.461Z,20.25
2023-02-28T12:56:44.800Z,20.22
2023-02-28T12:59:15.309Z,20.19
2023-02-28T13:01:45.487Z,20.17
2023-02-28T13:04:15.753Z,20.15
2023-02-28T13:06:45.879Z,20.12
2023-02-28T13:09:16.755Z,20.10
2023-02-28T13:11:46.490Z,20.11
2023-02-28T13:14:19.471Z,20.05
2023-02-28T13:16:49.415Z,20.02
2023-02-28T13:19:19.601Z,19.98
2023-02-28T13:21:47.082Z,19.95
2023-02-28T13:24:34.517Z,19.92
2023-02-28T13:27:02.110Z,19.90
2023-02-28T13:29:36.252Z,19.89
2023-02-28T13:32:07.904Z,19.87
2023-02-28T13:34:36.783Z,19.86
2023-02-28T13:37:07.035Z,19.81
2023-02-28T13:39:36.397Z,19.80
2023-02-28T13:42:06.862Z,19.80
2023-02-28T13:44:56.095Z,19.78
2023-02-28T13:47:26.033Z,19.76
2023-02-28T13:49:53.491Z,19.72
2023-02-28T13:52:22.584Z,19.69
2023-02-28T13:54:52.960Z,19.66
2023-02-28T13:57:27.035Z,19.71
2023-02-28T13:59:59.897Z,19.63
2023-02-28T14:02:30.257Z,19.59
2023-02-28T14:05:00.440Z,19.56
2023-02-28T14:07:31.131Z,19.52
2023-02-28T14:10:06.950Z,19.52
2023-02-28T14:12:37.325Z,19.49
2023-02-28T14:15:07.042Z,19.48
2023-02-28T14:17:34.252Z,19.46
2023-02-28T14:20:02.240Z,19.46
2023-02-28T14:22:32.350Z,19.43
2023-02-28T14:25:03.427Z,19.43
2023-02-28T14:27:36.481Z,19.42
2023-02-28T14:30:08.393Z,19.39
2023-02-28T14:32:43.359Z,19.39
2023-02-28T14:35:11.938Z,19.36
2023-02-28T14:37:41.620Z,19.38
2023-02-28T14:40:11.724Z,19.44
2023-02-28T14:42:39.420Z,19.45
2023-02-28T14:45:07.842Z,19.47
2023-02-28T14:47:36.641Z,19.52
2023-02-28T14:50:05.695Z,19.59
2023-02-28T14:52:34.032Z,19.65
2023-02-28T14:55:03.063Z,19.71
2023-02-28T14:57:33.143Z,19.79
2023-02-28T15:00:05.055Z,19.89
2023-02-28T15:02:35.370Z,19.94
2023-02-28T15:05:11.925Z,20.00
2023-02-28T15:07:39.150Z,20.05
2023-02-28T15:10:09.128Z,20.10
2023-02-28T15:12:36.656Z,20.15
2023-02-28T15:15:04.166Z,20.32
2023-02-28T15:17:31.368Z,20.48
2023-02-28T15:19:58.748Z,20.57
2023-02-28T15:22:30.358Z,20.66
2023-02-28T15:24:58.048Z,20.73
2023-02-28T15:27:28.162Z,20.78
2023-02-28T15:29:56.300Z,20.82
2023-02-28T15:32:26.992Z,20.85
2023-02-28T15:34:55.013Z,20.87
2023-02-28T15:37:25.575Z,20.89
2023-02-28T15:39:55.290Z,20.90
2023-02-28T15:42:23.891Z,20.91
2023-02-28T15:44:51.016Z,20.91
2023-02-28T15:47:21.093Z,20.92
2023-02-28T15:49:48.427Z,20.92
2023-02-28T15:52:17.503Z,20.92
2023-02-28T15:54:47.340Z,20.91
2023-02-28T15:57:16.363Z,20.90
2023-02-28T15:59:50.411Z,20.91
2023-02-28T16:02:19.926Z,20.89
2023-02-28T16:04:50.087Z,20.87
2023-02-28T16:07:17.304Z,20.85
2023-02-28T16:09:44.227Z,20.85
2023-02-28T16:12:14.894Z,20.83
2023-02-28T16:14:42.221Z,20.83
2023-02-28T16:17:18.237Z,20.88
2023-02-28T16:19:45.116Z,20.91
2023-02-28T16:22:12.129Z,20.94
2023-02-28T16:24:39.983Z,20.98
2023-02-28T16:27:08.151Z,21.02
2023-02-28T16:29:37.849Z,21.07
2023-02-28T16:32:06.527Z,21.09
2023-02-28T16:34:33.939Z,21.13
2023-02-28T16:37:01.305Z,21.15
2023-02-28T16:39:28.466Z,21.16
2023-02-28T16:41:55.844Z,21.17
2023-02-28T16:44:27.876Z,21.18
2023-02-28T16:46:55.040Z,21.17
2023-02-28T16:49:22.547Z,21.20
2023-02-28T16:51:49.922Z,21.19
2023-02-28T16:54:17.456Z,21.18
2023-02-28T16:56:46.253Z,21.17
2023-02-28T16:59:16.670Z,21.16
2023-02-28T17:01:43.851Z,21.14
2023-02-28T17:04:12.072Z,21.13
2023-02-28T17:06:39.198Z,21.12
2023-02-28T17:09:06.226Z,21.10
2023-02-28T17:11:33.962Z,21.08
2023-02-28T17:14:00.962Z,21.08
2023-02-28T17:16:31.085Z,21.07
2023-02-28T17:19:00.209Z,21.06
2023-02-28T17:21:27.266Z,21.02
2023-02-28T17:23:54.276Z,20.97
2023-02-28T17:26:22.403Z,21.00
2023-02-28T17:28:50.301Z,20.96
2023-02-28T17:31:17.444Z,20.97
2023-02-28T17:33:45.069Z,20.95
2023-02-28T17:36:16.243Z,20.92
2023-02-28T17:38:43.435Z,20.94
2023-02-28T17:41:11.829Z,20.90
2023-02-28T17:43:39.700Z,20.86
2023-02-28T17:46:08.016Z,20.85
2023-02-28T17:48:35.369Z,20.83
2023-02-28T17:51:02.723Z,20.81
2023-02-28T17:53:30.869Z,20.77
2023-02-28T17:55:58.561Z,20.76
2023-02-28T17:58:27.004Z,20.72
2023-02-28T18:00:55.706Z,20.68
2023-02-28T18:03:23.362Z,20.64
2023-02-28T18:05:50.714Z,20.64
2023-02-28T18:08:18.030Z,20.63
2023-02-28T18:10:44.987Z,20.60
2023-02-28T18:13:13.909Z,20.59
2023-02-28T18:15:41.185Z,20.57
2023-02-28T18:18:08.669Z,20.53
2023-02-28T18:20:39.656Z,20.54
2023-02-28T18:23:07.516Z,20.46
2023-02-28T18:25:34.742Z,20.42
2023-02-28T18:28:02.581Z,20.40
2023-02-28T18:30:52.662Z,20.38
2023-02-28T18:33:20.649Z,20.32
2023-02-28T18:35:55.907Z,20.28
2023-02-28T18:38:23.216Z,20.21
2023-02-28T18:40:53.499Z,20.20
2023-02-28T18:43:20.504Z,20.17
2023-02-28T18:45:47.706Z,20.16
2023-02-28T18:48:15.710Z,20.13
2023-02-28T18:50:42.869Z,20.11
2023-02-28T18:53:09.870Z,20.09
2023-02-28T18:55:37.025Z,20.05
2023-02-28T18:58:04.996Z,20.02
2023-02-28T19:00:32.524Z,20.05
2023-02-28T19:02:59.500Z,20.09
2023-02-28T19:05:28.220Z,20.11
2023-02-28T19:07:55.109Z,20.16
2023-02-28T19:10:23.384Z,20.17
2023-02-28T19:12:52.890Z,20.23
2023-02-28T19:15:20.850Z,20.28
2023-02-28T19:17:47.761Z,20.34
2023-02-28T19:20:14.883Z,20.41
2023-02-28T19:22:42.844Z,20.47
2023-02-28T19:25:10.176Z,20.53
2023-02-28T19:27:37.163Z,20.58
2023-02-28T19:30:05.007Z,20.63
2023-02-28T19:32:32.236Z,20.68
2023-02-28T19:34:59.327Z,20.73
2023-02-28T19:37:26.243Z,20.78
2023-02-28T19:39:57.094Z,20.82
2023-02-28T19:42:24.580Z,20.85
2023-02-28T19:44:51.704Z,20.91
2023-02-28T19:47:19.627Z,20.96
2023-02-28T19:49:46.979Z,20.99
2023-02-28T19:52:15.699Z,21.04
2023-02-28T19:54:45.077Z,21.07
2023-02-28T19:57:13.563Z,21.10
2023-02-28T19:59:41.696Z,21.14
2023-02-28T20:02:12.780Z,21.18
2023-02-28T20:04:40.960Z,21.22
2023-02-28T20:07:09.409Z,21.25
2023-02-28T20:09:38.046Z,21.30
2023-02-28T20:12:07.161Z,21.34
2023-02-28T20:14:36.616Z,21.36
2023-02-28T20:17:05.997Z,21.41
2023-02-28T20:19:32.931Z,21.46
2023-02-28T20:22:01.231Z,21.49
2023-02-28T20:24:28.211Z,21.52
2023-02-28T20:26:55.565Z,21.55
2023-02-28T20:29:22.551Z,21.58
2023-02-28T20:31:49.786Z,21.62
2023-02-28T20:34:20.576Z,21.65
2023-02-28T20:36:50.460Z,21.68
2023-02-28T20:39:17.733Z,21.72
2023-02-28T20:41:44.757Z,21.75
2023-02-28T20:44:13.414Z,21.78
2023-02-28T20:46:42.586Z,21.80
2023-02-28T20:49:10.259Z,21.84
2023-02-28T20:51:40.539Z,21.86
2023-02-28T20:54:07.937Z,21.87
2023-02-28T20:56:35.191Z,21.87
2023-02-28T20:59:02.279Z,21.88
2023-02-28T21:01:30.201Z,21.91
2023-02-28T21:03:58.819Z,21.93
2023-02-28T21:06:27.010Z,21.96
2023-02-28T21:08:54.285Z,21.99
2023-02-28T21:11:24.710Z,22.00
2023-02-28T21:13:52.163Z,22.02
2023-02-28T21:16:20.937Z,22.05
2023-02-28T21:18:48.395Z,22.09
2023-02-28T21:21:16.687Z,22.10
2023-02-28T21:23:46.520Z,22.13
2023-02-28T21:26:14.956Z,22.16
2023-02-28T21:28:44.343Z,22.18
2023-02-28T21:31:16.603Z,22.21
2023-02-28T21:33:44.310Z,22.24
2023-02-28T21:36:12.882Z,22.27
2023-02-28T21:38:40.247Z,22.29
2023-02-28T21:41:08.173Z,22.31
2023-02-28T21:43:35.954Z,22.33
2023-02-28T21:46:04.619Z,22.34
2023-02-28T21:48:35.860Z,22.36
2023-02-28T21:51:05.255Z,22.35
2023-02-28T21:53:32.722Z,22.37
2023-02-28T21:56:01.899Z,22.36
2023-02-28T21:58:28.784Z,22.37
2023-02-28T22:00:55.818Z,22.38
2023-02-28T22:03:22.676Z,22.35
2023-02-28T22:05:49.696Z,22.32
2023-02-28T22:08:18.958Z,22.31
2023-02-28T22:10:45.904Z,22.32
2023-02-28T22:13:13.513Z,22.34
2023-02-28T22:15:40.445Z,22.27
2023-02-28T22:18:08.030Z,22.32
2023-02-28T22:20:35.050Z,22.32
2023-02-28T22:23:01.956Z,22.30
2023-02-28T22:25:29.225Z,22.27
2023-02-28T22:27:56.138Z,22.21
2023-02-28T22:30:24.067Z,22.21
2023-02-28T22:32:51.275Z,22.14
2023-02-28T22:35:19.729Z,22.11
2023-02-28T22:37:48.097Z,22.08
2023-02-28T22:40:15.175Z,22.04
2023-02-28T22:42:44.323Z,22.03
2023-02-28T22:45:11.854Z,22.00
2023-02-28T22:47:41.177Z,21.97
2023-02-28T22:50:08.777Z,21.95
2023-02-28T22:52:35.724Z,21.92
2023-02-28T22:55:02.606Z,21.88
2023-02-28T22:57:31.999Z,21.86
2023-02-28T22:59:58.921Z,21.84
2023-02-28T23:02:25.908Z,21.78
2023-02-28T23:04:58.090Z,21.78
2023-02-28T23:07:25.260Z,21.74
2023-02-28T23:09:53.093Z,21.71
2023-02-28T23:12:19.939Z,21.69
2023-02-28T23:14:46.828Z,21.70
2023-02-28T23:17:13.695Z,21.69
2023-02-28T23:19:40.708Z,21.75
2023-02-28T23:22:07.692Z,21.76
2023-02-28T23:24:34.921Z,21.78
2023-02-28T23:27:03.954Z,21.80
2023-02-28T23:29:31.985Z,21.87
2023-02-28T23:31:59.117Z,21.90
2023-02-28T23:34:28.261Z,21.92
2023-02-28T23:36:55.518Z,21.92
2023-02-28T23:39:22.875Z,21.93
2023-02-28T23:41:49.905Z,21.95
2023-02-28T23:44:17.284Z,21.96
2023-02-28T23:46:45.396Z,21.99
2023-02-28T23:49:12.637Z,21.98
2023-02-28T23:51:39.712Z,21.99
2023-02-28T23:54:06.998Z,21.95
2023-02-28T23:56:35.197Z,21.94
2023-02-28T23:59:02.196Z,21.97
